Time;durP1;ratioP1;P1;durP2;ratioP2;P2;SDS_P1;SDS_P2;PMS_P1;PMS_P2;Temp;Humidity;BMP_temperature;BMP_pressure;BME280_temperature;BME280_humidity;BME280_pressure;Samples;Min_cycle;Max_cycle;Signal;HPM_P1;HPM_P2
2021/06/02 00:01:09;;;;;;;3.13;2.93;;;;;;;13.35;92.42;94987.78;5039755;28;20466;-88
2021/06/02 00:03:42;;;;;;;3.13;2.47;;;;;;;13.37;92.47;94988.47;5039721;28;20460;-92
2021/06/02 00:09:31;;;;;;;3.17;2.90;;;;;;;13.40;93.14;94978.47;5041159;28;20451;-91
2021/06/02 00:12:01;;;;;;;2.90;2.70;;;;;;;13.38;92.66;94977.78;5040323;28;20486;-92
2021/06/02 00:14:28;;;;;;;3.20;2.57;;;;;;;13.37;93.30;94975.28;5040044;28;20450;-91
2021/06/02 00:16:56;;;;;;;3.00;2.80;;;;;;;13.39;93.28;94979.44;5039755;28;20503;-91
2021/06/02 00:19:31;;;;;;;4.50;2.77;;;;;;;13.37;93.41;94970.00;5039434;28;20482;-91
2021/06/02 00:21:59;;;;;;;3.20;2.80;;;;;;;13.39;93.46;94975.97;5038724;28;20943;-92
2021/06/02 00:24:26;;;;;;;7.77;3.80;;;;;;;13.37;93.46;94970.84;5038849;28;20504;-92
2021/06/02 00:26:55;;;;;;;3.20;2.90;;;;;;;13.37;93.41;94975.28;5039495;28;20461;-92
2021/06/02 00:29:25;;;;;;;3.00;2.80;;;;;;;13.38;93.32;94969.03;5039433;28;20454;-91
2021/06/02 00:31:53;;;;;;;3.10;2.90;;;;;;;13.38;92.90;94967.22;5039566;28;20500;-92
2021/06/02 00:34:20;;;;;;;3.37;3.00;;;;;;;13.41;93.20;94963.47;5039476;28;20831;-91
2021/06/02 00:36:48;;;;;;;2.67;2.47;;;;;;;13.42;92.62;94976.50;5039385;28;20436;-92
2021/06/02 00:39:15;;;;;;;4.17;3.20;;;;;;;13.39;92.22;94979.44;5038829;28;20478;-91
2021/06/02 00:41:44;;;;;;;5.77;2.90;;;;;;;13.38;92.09;94976.94;5038193;28;20459;-91
2021/06/02 00:44:13;;;;;;;3.33;3.03;;;;;;;13.36;91.88;94979.72;5038895;28;20460;-91
2021/06/02 00:46:40;;;;;;;3.33;3.03;;;;;;;13.36;92.53;94979.72;5039145;28;20973;-91
2021/06/02 00:49:09;;;;;;;2.77;2.47;;;;;;;13.36;92.37;94974.47;5039429;28;20446;-92
2021/06/02 00:51:36;;;;;;;2.83;2.57;;;;;;;13.37;92.90;94978.75;5039284;28;20445;-90
2021/06/02 00:54:06;;;;;;;2.57;2.30;;;;;;;13.36;93.03;94978.91;5039253;28;20447;-91
2021/06/02 00:56:38;;;;;;;2.90;2.60;;;;;;;13.35;93.24;94982.50;5039186;28;20484;-92
2021/06/02 00:59:05;;;;;;;5.50;2.53;;;;;;;13.35;92.93;94974.59;5038608;28;20488;-91
2021/06/02 01:01:34;;;;;;;3.50;2.60;;;;;;;13.35;93.08;94982.50;5039538;28;20498;-92
2021/06/02 01:04:02;;;;;;;2.60;2.30;;;;;;;13.35;92.92;94974.59;5039523;28;20461;-91
2021/06/02 01:06:29;;;;;;;2.50;2.30;;;;;;;13.37;93.22;94984.03;5047242;28;20464;-88
2021/06/02 01:09:00;;;;;;;2.87;2.20;;;;;;;13.38;93.00;94988.31;5026303;28;20444;-90
2021/06/02 01:11:29;;;;;;;2.53;2.33;;;;;;;13.39;93.66;94984.72;5059667;28;20457;-88
2021/06/02 01:13:57;;;;;;;3.50;3.20;;;;;;;13.36;93.25;94985.00;5059817;28;20475;-88
2021/06/02 01:16:27;;;;;;;2.33;2.23;;;;;;;13.38;93.50;94990.94;5060067;28;20493;-90
2021/06/02 01:18:54;;;;;;;2.40;2.20;;;;;;;13.38;93.64;94987.50;5059658;28;20537;-89
2021/06/02 01:21:23;;;;;;;4.80;2.40;;;;;;;13.35;92.99;94983.34;5049726;28;20460;-91
2021/06/02 01:23:54;;;;;;;4.90;2.53;;;;;;;13.35;93.13;94985.97;5039386;28;20457;-91
2021/06/02 01:26:23;;;;;;;2.83;2.53;;;;;;;13.34;93.72;94986.94;5038117;28;20475;-91
2021/06/02 01:28:50;;;;;;;2.57;2.37;;;;;;;13.33;93.46;94982.66;5038730;28;20447;-91
2021/06/02 01:31:39;;;;;;;2.33;2.17;;;;;;;13.28;93.24;94977.78;5037871;28;20461;-91
2021/06/02 01:34:14;;;;;;;8.50;2.40;;;;;;;13.23;93.32;94980.03;4977842;28;20453;-91
2021/06/02 01:37:03;;;;;;;3.07;2.63;;;;;;;13.19;93.53;94973.41;4979265;28;20881;-91
2021/06/02 01:40:01;;;;;;;2.90;2.70;;;;;;;13.20;93.22;94982.13;4977824;28;20487;-91
2021/06/02 01:42:43;;;;;;;2.60;2.40;;;;;;;13.19;93.08;94975.19;4976620;28;20463;-91
2021/06/02 01:45:44;;;;;;;2.47;2.27;;;;;;;13.14;93.00;94985.31;4976901;28;20449;-91
2021/06/02 01:48:45;;;;;;;3.10;2.80;;;;;;;13.10;92.26;94984.78;4946644;28;20424;-92
2021/06/02 01:51:54;;;;;;;2.37;2.17;;;;;;;13.09;93.01;94984.91;4872403;29;20458;-88
2021/06/02 01:54:45;;;;;;;3.70;2.37;;;;;;;13.06;92.34;94987.84;4918883;29;20457;-91
2021/06/02 01:57:41;;;;;;;3.07;2.57;;;;;;;13.08;91.93;94991.16;4919259;29;20446;-89
2021/06/02 02:00:41;;;;;;;6.20;2.53;;;;;;;13.08;91.74;94991.16;4918727;29;20487;-89
2021/06/02 02:03:37;;;;;;;3.80;2.40;;;;;;;12.98;91.87;94988.53;4922141;29;20462;-89
2021/06/02 02:06:37;;;;;;;4.90;2.10;;;;;;;12.98;92.18;94992.00;4936303;29;20497;-89
2021/06/02 02:09:12;;;;;;;3.40;2.20;;;;;;;13.00;92.03;94983.94;4864521;29;20467;-89
2021/06/02 02:11:42;;;;;;;3.80;2.40;;;;;;;12.99;91.20;94988.38;4887312;29;20539;-89
2021/06/02 02:14:29;;;;;;;2.10;2.00;;;;;;;12.99;91.31;94983.13;4900632;29;20461;-89
2021/06/02 02:17:17;;;;;;;7.00;2.33;;;;;;;12.96;91.07;94995.75;4900880;29;20449;-89
2021/06/02 02:20:00;;;;;;;2.03;1.93;;;;;;;12.92;91.13;94997.84;4899702;29;21079;-89
2021/06/02 02:22:33;;;;;;;2.90;2.27;;;;;;;12.89;91.13;95003.38;4899786;29;20444;-88
2021/06/02 02:25:04;;;;;;;2.33;2.13;;;;;;;12.86;91.20;94998.41;4899743;29;21106;-89
2021/06/02 02:27:43;;;;;;;2.30;2.00;;;;;;;12.88;91.45;94998.25;4945585;29;20449;-88
2021/06/02 02:30:20;;;;;;;4.13;2.30;;;;;;;12.89;91.55;95003.38;4956876;29;20452;-90
2021/06/02 02:33:09;;;;;;;3.03;2.63;;;;;;;12.87;91.41;95000.06;4956583;29;20472;-89
2021/06/02 02:35:45;;;;;;;2.30;2.20;;;;;;;12.82;91.88;95004.09;4880905;29;20473;-90
2021/06/02 02:38:29;;;;;;;1.90;1.80;;;;;;;12.85;92.13;95011.72;4880737;29;20469;-90
2021/06/02 02:41:04;;;;;;;3.40;2.30;;;;;;;12.85;92.38;95017.81;4881206;29;20496;-89
2021/06/02 02:43:54;;;;;;;2.47;2.27;;;;;;;12.84;92.96;95010.88;4880957;29;20998;-89
2021/06/02 02:46:29;;;;;;;2.13;1.93;;;;;;;12.86;93.38;95016.00;4938477;29;21025;-90
2021/06/02 02:49:08;;;;;;;3.03;2.03;;;;;;;12.87;93.20;95018.50;4956319;29;20995;-89
2021/06/02 02:51:43;;;;;;;2.93;2.63;;;;;;;12.88;92.43;95017.53;4956388;29;20494;-88
2021/06/02 02:54:13;;;;;;;5.43;2.10;;;;;;;12.88;92.83;95028.06;4955870;29;20447;-88
2021/06/02 02:56:49;;;;;;;2.57;2.37;;;;;;;12.84;93.00;95017.97;4956486;29;20870;-90
2021/06/02 02:59:24;;;;;;;3.33;2.67;;;;;;;12.84;93.24;95016.16;4956675;29;20498;-89
2021/06/02 03:01:59;;;;;;;2.50;2.10;;;;;;;12.83;93.65;95011.84;4956713;29;20490;-90
2021/06/02 03:04:27;;;;;;;4.33;2.80;;;;;;;12.84;93.27;95021.41;4954559;28;20458;-85
2021/06/02 03:06:57;;;;;;;2.85;2.65;;;;;;;12.89;93.79;95015.72;4954835;29;20519;-87
2021/06/02 03:09:30;;;;;;;2.87;2.67;;;;;;;12.95;93.58;95018.63;4956968;29;20202;-87
2021/06/02 03:12:07;;;;;;;2.30;2.10;;;;;;;12.98;93.55;95018.34;4921697;28;20796;-88
2021/06/02 03:14:49;;;;;;;2.30;2.20;;;;;;;12.97;92.90;95021.09;5015797;28;20944;-88
2021/06/02 03:17:23;;;;;;;3.00;2.80;;;;;;;12.90;93.09;95020.03;5015523;28;21076;-89
2021/06/02 03:20:00;;;;;;;4.57;2.80;;;;;;;12.90;93.32;95022.66;5015543;28;20482;-88
2021/06/02 03:22:38;;;;;;;4.33;3.93;;;;;;;12.91;93.68;95022.50;5016534;28;20435;-92
2021/06/02 03:25:21;;;;;;;3.60;3.30;;;;;;;12.91;93.60;95021.69;5017073;28;20467;-85
2021/06/02 03:28:13;;;;;;;5.50;4.23;;;;;;;12.94;93.95;95027.50;5016106;28;20464;-87
2021/06/02 03:30:44;;;;;;;3.23;2.93;;;;;;;12.93;93.95;95030.28;5016231;28;20437;-88
2021/06/02 03:33:34;;;;;;;10.40;3.60;;;;;;;12.93;93.80;95031.09;5015719;28;20455;-87
2021/06/02 03:39:34;;;;;;;4.50;4.10;;;;;;;12.89;93.13;95050.78;5015045;28;20984;-88
2021/06/02 03:42:09;;;;;;;3.70;3.40;;;;;;;12.92;93.34;95055.78;5015704;28;20493;-89
2021/06/02 03:44:50;;;;;;;4.10;3.80;;;;;;;12.93;93.33;95060.06;5015994;28;20874;-90
2021/06/02 03:50:49;;;;;;;4.50;4.10;;;;;;;12.92;93.44;95076.84;5015207;28;21005;-93
2021/06/02 03:53:29;;;;;;;5.00;4.53;;;;;;;12.83;93.94;95069.78;5015802;28;20458;-89
2021/06/02 03:56:03;;;;;;;5.63;5.13;;;;;;;12.79;94.80;95068.41;5015607;28;20461;-88
2021/06/02 03:58:41;;;;;;;9.00;6.90;;;;;;;12.77;94.69;95074.78;5016531;28;20449;-88
2021/06/02 04:01:15;;;;;;;15.30;8.37;;;;;;;12.71;94.67;95084.06;5016384;28;21226;-88
2021/06/02 04:04:01;;;;;;;10.10;6.03;;;;;;;12.86;95.94;95079.22;5016004;28;20441;-89
2021/06/02 04:06:37;;;;;;;7.87;6.10;;;;;;;13.45;92.92;95083.47;5033449;28;20483;-88
2021/06/02 04:09:09;;;;;;;5.53;5.03;;;;;;;13.14;91.78;95090.69;5032061;28;20504;-88
2021/06/02 04:11:44;;;;;;;5.33;4.83;;;;;;;13.16;91.55;95099.28;5027634;28;20446;-88
2021/06/02 04:14:18;;;;;;;4.73;4.23;;;;;;;12.93;91.40;95099.59;5016997;28;20494;-87
2021/06/02 04:16:45;;;;;;;5.30;4.37;;;;;;;12.76;92.75;95104.72;5018751;28;20435;-88
2021/06/02 04:19:15;;;;;;;5.50;4.90;;;;;;;12.56;93.85;95098.59;5019067;28;21022;-87
2021/06/02 04:21:45;;;;;;;8.23;4.87;;;;;;;12.29;94.34;95105.34;5018905;28;20511;-87
2021/06/02 04:24:13;;;;;;;9.50;5.37;;;;;;;12.16;95.12;95106.56;5019841;28;20463;-88
2021/06/02 04:26:40;;;;;;;17.97;8.90;;;;;;;12.19;96.07;95106.31;4968540;28;20493;-88
2021/06/02 04:29:10;;;;;;;20.00;9.33;;;;;;;12.14;96.64;95103.22;5019002;28;20435;-87
2021/06/02 04:31:38;;;;;;;12.83;8.60;;;;;;;12.19;97.03;95108.94;5018685;28;20451;-87
2021/06/02 04:34:05;;;;;;;9.10;7.20;;;;;;;12.40;96.66;95107.84;5018606;28;20457;-87
2021/06/02 04:36:32;;;;;;;11.83;7.60;;;;;;;12.43;95.94;95116.44;5018185;28;20450;-87
2021/06/02 04:39:01;;;;;;;10.43;6.27;;;;;;;12.38;95.78;95120.31;5018695;28;20818;-88
2021/06/02 04:41:29;;;;;;;11.73;5.50;;;;;;;12.61;95.37;95120.09;5018637;28;20454;-88
2021/06/02 04:43:57;;;;;;;10.13;6.97;;;;;;;12.58;94.09;95117.72;5018389;28;20464;-86
2021/06/02 04:46:24;;;;;;;6.23;5.60;;;;;;;12.62;94.45;95116.47;5018031;28;20875;-87
2021/06/02 04:48:52;;;;;;;10.47;8.07;;;;;;;12.52;94.60;95128.81;5018518;28;20444;-90
2021/06/02 04:51:59;;;;;;;7.00;6.30;;;;;;;12.63;95.23;95118.97;5018408;28;20458;-87
2021/06/02 04:55:02;;;;;;;9.20;8.20;;;;;;;12.80;93.76;95133.28;5018579;28;20467;-87
2021/06/02 04:58:07;;;;;;;8.73;6.60;;;;;;;12.91;93.32;95127.88;5017203;28;20861;-88
2021/06/02 05:01:06;;;;;;;10.13;6.67;;;;;;;13.19;93.39;95130.66;5018914;28;21031;-88
2021/06/02 05:04:12;;;;;;;17.33;11.70;;;;;;;13.24;91.62;95124.00;5019344;28;20468;-87
2021/06/02 05:07:04;;;;;;;43.43;20.17;;;;;;;13.25;89.17;95132.72;5018403;28;20552;-87
2021/06/02 05:10:22;;;;;;;39.40;20.57;;;;;;;13.31;89.45;95133.03;4984203;28;20937;-87
2021/06/02 05:13:49;;;;;;;16.93;12.33;;;;;;;13.38;87.96;95135.09;5025270;28;20986;-87
2021/06/02 05:16:42;;;;;;;14.53;11.47;;;;;;;13.30;88.42;95130.53;4998274;28;20465;-87
2021/06/02 05:19:59;;;;;;;13.20;11.00;;;;;;;13.22;88.41;95135.66;4998112;28;20472;-88
2021/06/02 05:22:53;;;;;;;12.23;10.73;;;;;;;13.13;88.62;95125.94;4997771;28;20466;-84
2021/06/02 05:26:10;;;;;;;18.73;11.20;;;;;;;13.12;88.21;95132.16;4996904;28;20448;-83
2021/06/02 05:29:05;;;;;;;20.17;14.80;;;;;;;13.19;89.84;95128.03;4996776;28;20455;-84
2021/06/02 05:32:06;;;;;;;16.13;13.53;;;;;;;13.27;89.23;95130.78;4997024;28;20490;-85
2021/06/02 05:38:32;;;;;;;11.60;10.40;;;;;;;13.42;88.89;95139.09;4954738;29;20496;-82
2021/06/02 05:41:07;;;;;;;12.00;10.67;;;;;;;13.52;88.56;95137.28;4861773;29;20540;-84
2021/06/02 05:44:15;;;;;;;14.00;10.30;;;;;;;13.66;89.07;95138.66;4861118;29;20446;-83
2021/06/02 05:47:32;;;;;;;13.10;9.00;;;;;;;13.77;88.13;95131.38;4861744;29;20481;-85
2021/06/02 05:50:39;;;;;;;10.60;8.33;;;;;;;13.91;87.51;95130.94;4861576;29;20430;-83
2021/06/02 05:57:01;;;;;;;13.10;8.93;;;;;;;14.21;86.56;95132.47;4789657;29;20433;-88
2021/06/02 06:00:11;;;;;;;10.80;9.70;;;;;;;14.34;84.83;95139.22;4790393;29;20518;-87
2021/06/02 06:03:23;;;;;;;11.33;8.77;;;;;;;14.37;84.08;95141.56;4754749;30;20455;-86
2021/06/02 06:06:11;;;;;;;11.00;8.00;;;;;;;14.42;84.44;95144.59;4709875;30;20536;-88
2021/06/02 06:09:14;;;;;;;13.03;9.20;;;;;;;14.48;83.90;95138.78;4719353;30;20471;-87
2021/06/02 06:12:16;;;;;;;10.93;9.43;;;;;;;14.55;82.87;95145.94;4749890;30;20459;-87
2021/06/02 06:15:21;;;;;;;12.83;8.27;;;;;;;14.68;82.17;95150.03;4773784;30;20458;-86
2021/06/02 06:18:13;;;;;;;14.70;9.00;;;;;;;14.71;80.83;95150.56;4733017;30;20465;-85
2021/06/02 06:21:10;;;;;;;9.40;7.67;;;;;;;14.75;79.87;95154.59;4702713;30;20499;-86
2021/06/02 06:23:53;;;;;;;11.47;8.13;;;;;;;14.92;82.78;95142.34;4669001;30;20466;-86
2021/06/02 06:26:26;;;;;;;10.53;7.67;;;;;;;14.97;82.17;95148.03;4669037;30;20456;-86
2021/06/02 06:29:02;;;;;;;11.17;7.80;;;;;;;15.11;79.41;95157.25;4667549;30;20461;-87
2021/06/02 06:35:01;;;;;;;10.93;7.30;;;;;;;15.35;78.99;95168.06;4667368;30;20475;-85
2021/06/02 06:37:32;;;;;;;10.83;7.80;;;;;;;15.35;76.59;95168.06;4669257;30;20522;-87
2021/06/02 06:40:05;;;;;;;9.43;6.67;;;;;;;15.39;76.48;95168.56;4695669;30;20562;-87
2021/06/02 06:42:40;;;;;;;8.10;7.40;;;;;;;15.33;75.94;95169.19;4772686;30;20476;-87
2021/06/02 06:45:10;;;;;;;9.77;7.70;;;;;;;15.29;75.52;95171.28;4773127;30;20447;-89
2021/06/02 06:47:38;;;;;;;11.90;6.60;;;;;;;15.40;76.51;95176.34;4771213;30;20463;-92
2021/06/02 06:50:09;;;;;;;8.93;6.70;;;;;;;15.49;76.13;95171.94;4785610;30;20948;-91
2021/06/02 06:52:37;;;;;;;9.97;6.87;;;;;;;15.63;73.71;95173.25;4790759;30;20546;-88
2021/06/02 06:55:09;;;;;;;9.37;7.03;;;;;;;15.67;72.31;95171.97;4827630;29;20455;-85
2021/06/02 06:57:37;;;;;;;7.73;6.83;;;;;;;15.99;72.86;95177.47;4887493;29;20483;-85
2021/06/02 07:00:25;;;;;;;6.17;5.67;;;;;;;16.47;71.14;95170.75;4930579;28;21073;-84
2021/06/02 07:02:52;;;;;;;7.67;6.90;;;;;;;17.08;68.77;95164.38;4955140;29;20449;-85
2021/06/02 07:05:20;;;;;;;8.97;6.47;;;;;;;17.49;66.92;95167.06;4962996;28;20480;-85
2021/06/02 07:07:47;;;;;;;13.80;6.27;;;;;;;17.89;67.46;95164.41;4976101;28;20445;-87
2021/06/02 07:10:16;;;;;;;8.30;6.03;;;;;;;18.11;65.37;95167.38;4975239;28;20977;-86
2021/06/02 07:12:45;;;;;;;13.40;7.10;;;;;;;18.15;64.81;95174.81;4974553;28;20449;-85
2021/06/02 07:15:14;;;;;;;7.67;6.73;;;;;;;17.99;63.36;95168.72;4974984;28;20453;-84
2021/06/02 07:17:43;;;;;;;7.13;6.37;;;;;;;17.80;62.89;95173.38;4943310;28;20433;-84
2021/06/02 07:20:14;;;;;;;9.10;6.60;;;;;;;17.57;63.69;95164.41;4975950;28;20469;-86
2021/06/02 07:22:44;;;;;;;6.93;5.77;;;;;;;17.60;65.92;95164.06;4973772;28;20445;-85
2021/06/02 07:25:16;;;;;;;10.23;5.53;;;;;;;17.70;63.18;95154.16;4974758;28;20522;-86
2021/06/02 07:27:45;;;;;;;9.53;5.30;;;;;;;18.02;62.96;95155.13;4975652;28;20445;-86
2021/06/02 07:30:13;;;;;;;5.73;5.20;;;;;;;18.20;61.52;95150.41;4976949;28;20500;-86
2021/06/02 07:32:40;;;;;;;6.60;6.00;;;;;;;18.28;63.23;95147.75;4973681;28;20970;-86
2021/06/02 07:35:07;;;;;;;6.07;5.33;;;;;;;18.69;60.92;95151.09;5015135;28;20932;-86
2021/06/02 07:37:34;;;;;;;9.13;5.20;;;;;;;18.94;61.37;95150.97;5016267;28;20442;-86
2021/06/02 07:40:06;;;;;;;12.60;5.77;;;;;;;19.50;60.24;95152.44;5016119;28;20833;-86
2021/06/02 07:42:35;;;;;;;8.90;6.40;;;;;;;19.94;60.41;95146.41;4980876;28;20991;-86
2021/06/02 07:45:01;;;;;;;12.30;4.97;;;;;;;20.18;58.46;95130.19;5016873;28;20489;-86
2021/06/02 07:47:28;;;;;;;6.00;5.40;;;;;;;20.10;55.83;95138.28;5015446;28;20764;-87
2021/06/02 07:49:55;;;;;;;5.97;5.47;;;;;;;20.24;56.73;95137.47;5017024;28;20438;-87
2021/06/02 07:52:21;;;;;;;5.67;4.30;;;;;;;20.46;55.85;95129.56;5022216;28;20950;-88
2021/06/02 07:54:48;;;;;;;5.97;5.10;;;;;;;20.32;54.84;95134.69;5025991;28;20460;-86
2021/06/02 07:57:14;;;;;;;5.00;4.60;;;;;;;20.16;53.50;95134.88;5021554;28;20449;-86
2021/06/02 07:59:43;;;;;;;9.10;3.90;;;;;;;20.27;55.59;95129.09;5018872;28;20508;-87
2021/06/02 08:02:19;;;;;;;4.97;4.57;;;;;;;20.47;54.37;95125.88;5002962;28;20525;-87
2021/06/02 08:07:29;;;;;;;5.13;4.03;;;;;;;20.23;54.38;95138.44;5029862;28;20532;-86
2021/06/02 08:09:55;;;;;;;6.10;5.60;;;;;;;20.37;56.01;95132.31;5027291;28;20793;-86
2021/06/02 08:12:22;;;;;;;10.50;3.90;;;;;;;20.77;55.53;95127.50;5020469;28;20486;-88
2021/06/02 08:14:50;;;;;;;4.67;4.27;;;;;;;20.56;53.53;95127.47;5020917;28;20462;-85
2021/06/02 08:17:16;;;;;;;5.60;3.83;;;;;;;19.71;54.38;95131.31;5019774;28;20439;-85
2021/06/02 08:19:43;;;;;;;9.47;4.47;;;;;;;19.73;55.96;95128.47;5020186;28;20485;-85
2021/06/02 08:22:09;;;;;;;5.83;4.93;;;;;;;19.84;56.42;95121.88;5018585;28;20461;-85
2021/06/02 08:24:39;;;;;;;4.13;3.73;;;;;;;19.78;55.81;95137.56;5022456;28;20443;-88
2021/06/02 08:27:06;;;;;;;4.90;4.10;;;;;;;19.33;57.97;95129.59;5019135;28;20853;-83
2021/06/02 08:29:33;;;;;;;4.83;4.37;;;;;;;19.46;66.70;95135.16;5020020;28;20466;-87
2021/06/02 08:32:01;;;;;;;4.30;3.87;;;;;;;19.39;58.39;95136.88;5020220;28;20511;-88
2021/06/02 08:34:27;;;;;;;5.73;4.63;;;;;;;19.39;59.54;95131.56;5018599;28;20438;-83
2021/06/02 08:36:54;;;;;;;5.87;4.37;;;;;;;19.31;55.60;95135.09;5026091;28;20535;-87
2021/06/02 08:39:21;;;;;;;4.33;3.03;;;;;;;19.08;54.10;95126.28;5025985;28;20447;-89
2021/06/02 08:41:49;;;;;;;5.67;3.60;;;;;;;19.00;59.38;95136.97;5026791;28;20477;-87
2021/06/02 08:44:16;;;;;;;5.37;4.30;;;;;;;19.07;61.55;95128.09;5025185;28;20788;-84
2021/06/02 08:46:43;;;;;;;11.33;5.47;;;;;;;18.98;57.73;95129.16;5027826;28;20476;-86
2021/06/02 08:49:13;;;;;;;4.83;4.30;;;;;;;18.91;57.01;95138.84;5020469;28;20449;-86
2021/06/02 08:51:40;;;;;;;5.10;3.90;;;;;;;18.86;57.77;95135.91;5021231;28;20448;-87
2021/06/02 08:54:07;;;;;;;4.77;4.13;;;;;;;18.94;58.31;95130.53;5020909;28;20458;-86
2021/06/02 08:56:39;;;;;;;3.60;3.23;;;;;;;19.06;57.10;95137.09;5020906;28;20929;-87
2021/06/02 08:59:06;;;;;;;4.20;3.80;;;;;;;19.01;56.44;95134.13;5020140;28;20452;-86
2021/06/02 09:01:32;;;;;;;4.40;3.27;;;;;;;18.94;56.91;95135.84;5019861;28;20484;-85
2021/06/02 09:04:00;;;;;;;4.17;3.60;;;;;;;19.03;55.71;95129.47;5018454;28;20778;-87
2021/06/02 09:06:30;;;;;;;5.40;3.80;;;;;;;19.24;55.52;95131.50;5016725;28;20476;-87
2021/06/02 09:08:57;;;;;;;3.90;3.60;;;;;;;19.49;55.43;95134.81;5018262;28;20817;-87
2021/06/02 09:11:24;;;;;;;7.20;3.73;;;;;;;19.41;53.17;95133.03;5017782;28;20444;-88
2021/06/02 09:13:50;;;;;;;3.63;2.90;;;;;;;19.40;53.36;95128.72;5018609;28;20467;-90
2021/06/02 09:16:19;;;;;;;4.30;3.50;;;;;;;19.49;53.61;95130.31;5018709;28;20461;-85
2021/06/02 09:18:50;;;;;;;4.43;3.83;;;;;;;19.42;54.01;95128.53;4983809;28;20960;-86
2021/06/02 09:21:17;;;;;;;3.53;3.23;;;;;;;19.53;57.84;95128.16;5619655;23;20724;-86
2021/06/02 09:23:46;;;;;;;6.27;3.50;;;;;;;19.28;53.12;95124.81;4997511;28;20466;-88
2021/06/02 09:26:23;;;;;;;5.17;3.23;;;;;;;19.16;54.29;95123.56;4998031;28;20496;-87
2021/06/02 09:29:09;;;;;;;2.97;2.70;;;;;;;19.03;54.33;95124.16;4997513;28;20450;-88
2021/06/02 09:31:38;;;;;;;3.63;3.10;;;;;;;19.13;54.08;95127.41;4997754;28;20438;-86
2021/06/02 09:34:14;;;;;;;5.30;3.50;;;;;;;19.29;54.20;95120.31;4997434;28;20540;-86
2021/06/02 09:36:42;;;;;;;6.90;3.57;;;;;;;19.38;55.58;95120.09;4997747;28;20482;-86
2021/06/02 09:39:12;;;;;;;5.07;3.30;;;;;;;19.15;53.68;95109.44;4998285;28;20447;-86
2021/06/02 09:41:41;;;;;;;3.67;3.30;;;;;;;19.13;52.54;95114.13;4999093;28;20859;-86
2021/06/02 09:44:15;;;;;;;5.87;3.30;;;;;;;19.12;54.65;95111.63;4998545;28;20464;-88
2021/06/02 09:47:02;;;;;;;3.73;3.17;;;;;;;19.26;54.47;95118.84;4979948;28;20482;-86
2021/06/02 09:49:31;;;;;;;4.87;4.37;;;;;;;19.15;55.08;95112.09;4997384;28;20459;-86
2021/06/02 09:51:58;;;;;;;3.27;2.97;;;;;;;19.11;55.24;95118.78;4997867;28;21217;-86
2021/06/02 09:54:26;;;;;;;3.83;3.27;;;;;;;19.00;54.60;95110.38;4998549;28;20935;-86
2021/06/02 09:56:53;;;;;;;3.63;3.33;;;;;;;18.87;55.33;95116.28;4997599;28;20452;-87
2021/06/02 09:59:20;;;;;;;114.57;17.83;;;;;;;18.75;55.17;95115.00;4998384;28;20453;-86
2021/06/02 10:01:58;;;;;;;27.37;6.83;;;;;;;18.65;55.46;95119.72;4997336;28;21016;-86
2021/06/02 10:04:30;;;;;;;8.13;4.50;;;;;;;18.50;56.46;95111.59;4999068;28;20446;-86
2021/06/02 10:06:58;;;;;;;4.13;3.57;;;;;;;18.42;56.20;95115.13;5000274;28;20436;-82
2021/06/02 10:09:29;;;;;;;60.80;12.20;;;;;;;18.61;56.68;95121.03;4998034;28;21561;-86
2021/06/02 10:11:57;;;;;;;124.77;16.13;;;;;;;18.97;56.51;95111.56;4981177;28;20463;-87
2021/06/02 10:14:23;;;;;;;10.27;5.23;;;;;;;19.21;56.13;95115.06;5015642;28;20442;-84
2021/06/02 10:16:50;;;;;;;19.67;5.77;;;;;;;19.43;57.38;95116.91;5017397;28;20429;-84
2021/06/02 10:19:34;;;;;;;3.43;3.10;;;;;;;19.42;53.01;95120.56;5018740;28;20458;-84
2021/06/02 10:22:03;;;;;;;3.40;3.10;;;;;;;19.31;54.36;95123.63;5024857;28;20482;-86
2021/06/02 10:24:32;;;;;;;4.80;3.50;;;;;;;19.19;54.04;95116.06;5036799;28;20446;-86
2021/06/02 10:26:59;;;;;;;5.50;3.77;;;;;;;19.04;54.75;95115.16;5030737;28;20455;-88
2021/06/02 10:29:32;;;;;;;55.70;8.27;;;;;;;18.87;54.04;95118.94;5020872;28;20455;-86
2021/06/02 10:31:58;;;;;;;9.63;3.53;;;;;;;18.70;53.42;95131.47;4999728;28;20461;-87
2021/06/02 10:34:25;;;;;;;3.80;3.40;;;;;;;18.56;56.05;95127.72;4999706;28;20817;-87
2021/06/02 10:36:52;;;;;;;5.50;3.63;;;;;;;18.52;56.11;95126.41;4998666;28;20559;-87
2021/06/02 10:39:20;;;;;;;5.90;3.50;;;;;;;18.45;56.14;95114.78;4998301;28;20517;-87
2021/06/02 10:41:52;;;;;;;6.20;3.93;;;;;;;18.39;55.63;95126.09;4994470;28;20499;-87
2021/06/02 10:44:30;;;;;;;3.67;3.20;;;;;;;18.35;55.03;95119.47;4995078;28;20503;-87
2021/06/02 10:46:58;;;;;;;3.37;3.07;;;;;;;18.36;56.63;95128.28;4998485;28;20449;-85
2021/06/02 10:49:27;;;;;;;3.20;3.00;;;;;;;18.33;55.58;95118.84;5000894;28;21738;-87
2021/06/02 10:51:56;;;;;;;8.43;3.53;;;;;;;18.27;55.95;95122.19;4995370;28;20453;-87
2021/06/02 10:54:33;;;;;;;4.03;3.60;;;;;;;18.29;56.25;95122.00;4994969;28;20488;-86
2021/06/02 10:57:15;;;;;;;7.10;3.57;;;;;;;18.25;55.59;95126.84;5010259;28;20945;-86
2021/06/02 10:59:42;;;;;;;11.63;4.87;;;;;;;18.26;55.45;95124.00;5016670;28;20955;-87
2021/06/02 11:02:11;;;;;;;4.17;3.63;;;;;;;18.33;57.44;95123.31;5016407;28;20937;-87
2021/06/02 11:04:39;;;;;;;8.10;4.03;;;;;;;18.09;60.89;95121.56;5020595;28;20468;-87
2021/06/02 11:07:19;;;;;;;4.77;4.37;;;;;;;18.21;60.10;95136.97;5017661;28;20566;-86
2021/06/02 11:10:02;;;;;;;4.90;4.50;;;;;;;18.24;60.83;95126.00;5017544;28;20448;-86
2021/06/02 11:13:02;;;;;;;4.90;4.10;;;;;;;18.22;59.78;95121.88;5016170;28;20913;-86
2021/06/02 11:15:43;;;;;;;7.17;4.60;;;;;;;18.23;59.93;95134.97;5016725;28;20981;-88
2021/06/02 11:18:21;;;;;;;10.53;4.10;;;;;;;18.31;61.05;95135.94;5016905;28;20821;-85
2021/06/02 11:20:50;;;;;;;7.77;5.17;;;;;;;18.30;61.17;95132.47;5016838;28;20486;-86
2021/06/02 11:23:18;;;;;;;5.50;3.60;;;;;;;18.28;59.93;95129.16;5016920;28;20527;-86
2021/06/02 11:25:46;;;;;;;7.03;4.63;;;;;;;18.28;60.71;95123.84;5020243;28;20443;-85
2021/06/02 11:28:45;;;;;;;5.30;4.67;;;;;;;18.30;61.04;95128.97;5020209;28;20994;-85
2021/06/02 11:31:23;;;;;;;4.83;4.37;;;;;;;18.17;61.97;95137.47;5020457;28;20928;-85
2021/06/02 11:33:50;;;;;;;8.30;4.60;;;;;;;18.03;62.58;95135.53;5020336;28;20448;-86
2021/06/02 11:36:17;;;;;;;11.10;4.40;;;;;;;17.95;61.76;95137.22;5020899;28;20436;-86
2021/06/02 11:38:46;;;;;;;9.37;4.07;;;;;;;17.98;64.24;95137.88;5020180;28;20482;-86
2021/06/02 11:41:14;;;;;;;5.30;4.80;;;;;;;17.75;66.01;95133.25;5019961;28;20570;-86
2021/06/02 11:57:26;;;;;;;4.10;3.80;;;;;;;17.84;66.57;95134.06;5019050;28;20434;-86
2021/06/02 11:59:54;;;;;;;12.00;4.30;;;;;;;17.72;66.34;95124.78;5019808;28;20528;-85
2021/06/02 12:02:21;;;;;;;7.13;3.53;;;;;;;17.91;64.65;95132.38;5019420;28;20439;-86
2021/06/02 12:04:47;;;;;;;4.60;4.20;;;;;;;17.91;63.63;95127.91;5018852;28;20448;-86
2021/06/02 12:07:21;;;;;;;8.47;4.07;;;;;;;17.94;64.25;95119.63;5020205;28;20452;-86
2021/06/02 12:09:49;;;;;;;7.40;4.80;;;;;;;18.05;65.07;95126.38;5021237;28;20757;-86
2021/06/02 12:12:15;;;;;;;5.20;4.40;;;;;;;18.04;62.64;95122.06;5021557;28;20457;-86
2021/06/02 12:14:51;;;;;;;3.97;3.67;;;;;;;18.03;61.20;95124.91;5019492;28;20436;-87
2021/06/02 12:17:18;;;;;;;6.20;3.93;;;;;;;17.88;63.95;95122.94;5018943;28;20502;-87
2021/06/02 12:19:44;;;;;;;4.77;4.30;;;;;;;17.91;63.22;95117.28;4968880;28;20484;-87
2021/06/02 12:22:13;;;;;;;4.40;4.00;;;;;;;17.98;64.29;95125.41;5011540;28;20468;-87
2021/06/02 12:24:40;;;;;;;8.70;4.60;;;;;;;18.21;63.74;95118.38;4999805;28;20440;-86
2021/06/02 12:27:13;;;;;;;4.43;3.50;;;;;;;18.30;62.74;95121.84;4999617;28;20453;-87
2021/06/02 12:29:40;;;;;;;5.07;4.67;;;;;;;18.42;63.50;95123.09;5001204;28;20440;-86
2021/06/02 12:32:08;;;;;;;5.97;4.13;;;;;;;18.54;61.68;95121.75;5000553;28;20447;-86
2021/06/02 12:34:36;;;;;;;13.33;3.90;;;;;;;18.70;60.60;95128.00;5001521;28;20807;-86
2021/06/02 12:37:07;;;;;;;4.20;3.80;;;;;;;18.85;59.89;95126.28;5000441;28;20484;-87
2021/06/02 12:39:34;;;;;;;7.30;3.97;;;;;;;18.97;58.96;95127.50;5000944;28;20451;-87
2021/06/02 12:42:03;;;;;;;9.83;3.90;;;;;;;19.06;59.02;95125.63;5006044;28;20506;-86
2021/06/02 12:44:32;;;;;;;6.57;3.77;;;;;;;19.08;59.42;95129.78;5008445;28;20781;-87
2021/06/02 12:47:00;;;;;;;7.97;3.60;;;;;;;19.08;58.28;95128.94;5006157;28;20456;-87